Flight Track Log - Related Links

Times and Time Zones

All times are in EDT time to prevent confusion due to time zone crossing. See the N27XP flight status page for this flight to view local times or setup timezone preferences in your user account.

Time Position Orientation Groundspeed Altitude Reporting Facility
EDT Latitude Longitude Course Direction KTS MPH feet Rate Location/Type
Wed 10:13:18 AM 35.3300 -79.3906 314° West 204 235 5,600  Level Washington Center
Wed 10:14:16 AM 35.3722 -79.4433 314° West 233 268 8,700 2,672 Climbing Washington Center
Wed 10:15:17 AM 35.4219 -79.5172 310° West 254 292 10,900 1,721 Climbing Washington Center
Wed 10:16:18 AM 35.4717 -79.5911 310° West 299 344 12,200 1,988 Climbing Washington Center
Wed 10:18:09 AM 35.5950 -79.7381 316° Northwest 313 360 16,600 2,386 Climbing Atlanta Center
Wed 10:19:09 AM 35.6536 -79.8039 318° Northwest 298 343 19,000 2,000 Climbing Atlanta Center
Wed 10:20:09 AM 35.7036 -79.8628 316° Northwest 290 334 20,600 1,800 Climbing Atlanta Center
Wed 10:21:09 AM 35.7689 -79.9411 316° Northwest 292 336 22,600 1,750 Climbing Atlanta Center
Wed 10:22:09 AM 35.8275 -80.0100 316° Northwest 292 336 24,100 1,400 Climbing Atlanta Center
Wed 10:23:09 AM 35.8861 -80.0814 315° West 292 336 25,400 1,350 Climbing Atlanta Center
Wed 10:24:09 AM 35.9444 -80.1503 316° Northwest 292 336 26,800 900 Climbing Atlanta Center
Wed 10:25:09 AM 36.0053 -80.2244 315° West 292 336 27,200 1,000 Climbing Atlanta Center
Wed 10:26:09 AM 36.0636 -80.2936 316° Northwest 310 357 28,800 1,250 Climbing Atlanta Center
Wed 10:27:09 AM 36.1222 -80.3681 314° West 310 357 29,700 900 Climbing Atlanta Center
Wed 10:28:09 AM 36.1828 -80.4400 316° Northwest 310 357 30,600 900 Climbing Atlanta Center
Wed 10:29:09 AM 36.2433 -80.5144 315° West 310 357 31,500 700 Climbing Atlanta Center
Wed 10:30:09 AM 36.3081 -80.5889 317° Northwest 315 362 32,000 250 Climbing Atlanta Center
Wed 10:31:09 AM 36.3728 -80.6661 316° Northwest 320 368 32,000  Level Atlanta Center
Wed 10:32:09 AM 36.4417 -80.7483 316° Northwest 331 381 32,000  Level Atlanta Center
Wed 10:33:09 AM 36.5108 -80.8333 315° West 342 394 32,000  Level Atlanta Center
Wed 10:34:09 AM 36.5817 -80.9208 315° West 352 405 32,000  Level Atlanta Center
Wed 10:35:09 AM 36.6614 -81.0214 315° West 357 411 32,000  Level Atlanta Center
Wed 10:36:09 AM 36.7386 -81.1117 317° Northwest 368 423 32,000  Level Atlanta Center
Wed 10:37:57 AM 36.8633 -81.2661 315° West 380 437 32,000  Level Indianapolis Center
Wed 10:38:59 AM 36.9511 -81.3783 314° West 384 442 32,000  Level Indianapolis Center
Wed 10:40:01 AM 37.0131 -81.4819 307° West 381 438 32,000  Level Indianapolis Center
Wed 10:41:03 AM 37.0733 -81.5819 307° West 372 428 32,000  Level Indianapolis Center
Wed 10:42:05 AM 37.1461 -81.7028 307° West 372 428 32,000  Level Indianapolis Center
Wed 10:43:06 AM 37.2083 -81.8056 307° West 371 427 32,000  Level Indianapolis Center
Wed 10:44:08 AM 37.2692 -81.9078 307° West 367 422 32,000  Level Indianapolis Center
Wed 10:45:10 AM 37.3300 -82.0103 307° West 366 421 32,000  Level Indianapolis Center
Wed 10:46:12 AM 37.3903 -82.1119 307° West 364 419 32,000  Level Indianapolis Center
Wed 10:47:14 AM 37.4492 -82.2133 306° West 361 415 32,000 -634 Level Indianapolis Center
Wed 10:48:15 AM 37.5181 -82.3303 307° West 358 412 30,700 -1,317 Descending Indianapolis Center
Wed 10:49:17 AM 37.5767 -82.4281 307° West 353 406 29,300 -1,355 Descending Indianapolis Center
Wed 10:50:19 AM 37.6319 -82.5236 306° West 342 394 27,900 -1,403 Descending Indianapolis Center
Wed 10:51:21 AM 37.6883 -82.6219 306° West 344 396 26,400 -1,415 Descending Indianapolis Center
Wed 10:52:22 AM 37.7475 -82.7247 306° West 357 411 25,000 -1,268 Descending Indianapolis Center
Wed 10:53:24 AM 37.8086 -82.8283 307° West 366 421 23,800 -968 Descending Indianapolis Center
Wed 10:54:26 AM 37.8783 -82.9492 306° West 365 420 23,000 -387 Descending Indianapolis Center
Wed 10:55:28 AM 37.9383 -83.0528 306° West 365 420 23,000  Level Indianapolis Center
Wed 10:56:29 AM 37.9986 -83.1556 307° West 364 419 23,000  Level Indianapolis Center
Wed 10:57:31 AM 38.0575 -83.2589 306° West 363 418 23,000  Level Indianapolis Center
Wed 10:58:33 AM 38.1164 -83.3631 306° West 364 419 23,000 -98 Level Indianapolis Center
Wed 10:59:34 AM 38.1761 -83.4672 306° West 364 419 22,800 -1,220 Descending Indianapolis Center
Wed 11:00:36 AM 38.2444 -83.5875 306° West 361 415 20,500 -1,984 Descending Indianapolis Center
Wed 11:01:38 AM 38.3008 -83.6883 305° West 352 405 18,700 -1,742 Descending Indianapolis Center
Wed 11:02:40 AM 38.3553 -83.7828 306° West 335 386 16,900 -1,756 Descending Indianapolis Center
Wed 11:03:41 AM 38.4097 -83.8803 305° West 336 387 15,100 -1,756 Descending Indianapolis Center
Wed 11:04:43 AM 38.4644 -83.9792 305° West 338 389 13,300 -1,500 Descending Indianapolis Center
Wed 11:05:45 AM 38.5183 -84.0783 305° West 339 390 12,000 -968 Descending Indianapolis Center
Wed 11:06:47 AM 38.6061 -84.1294 336° Northwest 305 351 11,300 -1,024 Descending Indianapolis Center
Wed 11:07:48 AM 38.6769 -84.1436 351° North 291 335 9,900 -1,415 Descending Indianapolis Center
Wed 11:08:50 AM 38.7514 -84.1644 348° North 277 319 8,400 -1,355 Descending Indianapolis Center
Wed 11:09:52 AM 38.8231 -84.1872 346° North 268 308 7,100 -1,366 Descending Indianapolis Center
Wed 11:10:53 AM 38.9056 -84.2164 345° North 259 298 5,600 -1,415 Descending Indianapolis Center
Wed 11:11:55 AM 38.9733 -84.2392 345° North 253 291 4,200 -1,016 Descending Indianapolis Center
Wed 11:12:57 AM 39.0400 -84.2633 344° North 253 291 3,500 -339 Descending Indianapolis Center
Wed 11:13:59 AM 39.1006 -84.2722 354° North 241 277 3,500  Level Indianapolis Center
Wed 11:15:00 AM 39.1533 -84.2733 359° North 218 251 3,500 -390 Level Indianapolis Center
Wed 11:16:02 AM 39.2025 -84.2792 355° North 197 227 2,700 -439 Descending Indianapolis Center
Wed 11:17:03 AM 39.2497 -84.2833 356° North 185 213 2,600 -49 Descending Indianapolis Center
Wed 11:18:05 AM 39.2878 -84.3033 338° Northwest 177 204 2,600  Level Indianapolis Center
Wed 11:19:07 AM 39.3142 -84.3556 303° West 158 182 2,600  Level Indianapolis Center
Wed 11:20:08 AM 39.3283 -84.3961 294° West 142 163 2,600 -98 Level Indianapolis Center
Wed 11:21:10 AM 39.3400 -84.4328 292° West 135 155 2,400 -194 Descending Indianapolis Center

Login

Don't have an account? Register now (free) for customized features, flight alerts, and more!